createdAt,value
2024-02-28T00:01:34.362Z,12.80
2024-02-28T00:04:02.718Z,18.00
2024-02-28T00:06:31.433Z,13.60
2024-02-28T00:09:00.093Z,10.70
2024-02-28T00:11:28.924Z,10.50
2024-02-28T00:13:57.248Z,13.30
2024-02-28T00:16:25.325Z,11.90
2024-02-28T00:18:53.710Z,13.80
2024-02-28T00:21:22.251Z,15.10
2024-02-28T00:23:50.652Z,11.00
2024-02-28T00:26:18.830Z,14.50
2024-02-28T00:28:46.944Z,17.80
2024-02-28T00:31:15.175Z,17.00
2024-02-28T00:33:43.351Z,16.10
2024-02-28T00:36:11.878Z,16.30
2024-02-28T00:38:40.429Z,9.40
2024-02-28T00:41:09.043Z,17.30
2024-02-28T00:43:37.134Z,21.60
2024-02-28T00:46:05.682Z,13.60
2024-02-28T00:48:33.890Z,16.70
2024-02-28T00:51:02.082Z,13.40
2024-02-28T00:53:30.257Z,16.60
2024-02-28T00:55:58.554Z,15.10
2024-02-28T00:58:29.190Z,19.10
2024-02-28T01:00:58.811Z,15.20
2024-02-28T01:03:27.310Z,13.80
2024-02-28T01:05:55.650Z,16.40
2024-02-28T01:08:23.920Z,17.60
2024-02-28T01:10:52.103Z,15.10
2024-02-28T01:13:20.352Z,13.60
2024-02-28T01:15:48.581Z,13.70
2024-02-28T01:18:17.185Z,18.80
2024-02-28T01:20:45.915Z,13.10
2024-02-28T01:23:14.063Z,16.50
2024-02-28T01:25:42.363Z,16.70
2024-02-28T01:28:10.635Z,15.40
2024-02-28T01:30:38.942Z,19.00
2024-02-28T01:33:07.531Z,14.30
2024-02-28T01:35:35.701Z,12.60
2024-02-28T01:38:04.058Z,14.30
2024-02-28T01:40:32.216Z,20.10
2024-02-28T01:43:09.818Z,18.90
2024-02-28T01:45:37.982Z,11.70
2024-02-28T01:48:11.477Z,18.90
2024-02-28T01:50:40.455Z,13.30
2024-02-28T01:53:10.543Z,9.30
2024-02-28T01:55:39.606Z,10.40
2024-02-28T01:58:08.276Z,20.80
2024-02-28T02:00:38.764Z,11.10
2024-02-28T02:03:07.411Z,11.90
2024-02-28T02:05:35.673Z,14.90
2024-02-28T02:08:04.227Z,15.20
2024-02-28T02:10:32.703Z,16.90
2024-02-28T02:13:08.022Z,14.50
2024-02-28T02:15:36.301Z,16.70
2024-02-28T02:18:04.872Z,15.50
2024-02-28T02:20:36.998Z,15.60
2024-02-28T02:23:05.485Z,12.20
2024-02-28T02:25:33.762Z,11.90
2024-02-28T02:28:01.885Z,18.70
2024-02-28T02:30:30.255Z,14.20
2024-02-28T02:32:58.544Z,15.20
2024-02-28T02:35:26.662Z,9.40
2024-02-28T02:37:54.759Z,17.30
2024-02-28T02:40:24.269Z,15.80
2024-02-28T02:42:52.428Z,12.20
2024-02-28T02:45:20.912Z,12.30
2024-02-28T02:47:49.111Z,14.40
2024-02-28T02:50:17.438Z,11.80
2024-02-28T02:52:45.714Z,13.20
2024-02-28T02:55:13.998Z,13.70
2024-02-28T02:57:42.505Z,15.60
2024-02-28T03:00:11.690Z,16.40
2024-02-28T03:02:41.110Z,22.60
2024-02-28T03:05:10.193Z,16.50
2024-02-28T03:07:38.436Z,12.00
2024-02-28T03:10:07.791Z,15.40
2024-02-28T03:12:36.689Z,12.30
2024-02-28T03:15:05.179Z,11.30
2024-02-28T03:17:33.492Z,17.20
2024-02-28T03:20:01.647Z,13.20
2024-02-28T03:22:30.063Z,16.70
2024-02-28T03:24:58.235Z,20.70
2024-02-28T03:27:26.496Z,23.70
2024-02-28T03:29:54.668Z,19.20
2024-02-28T03:32:22.938Z,18.30
2024-02-28T03:34:51.178Z,21.80
2024-02-28T03:37:19.392Z,20.40
2024-02-28T03:39:47.711Z,12.50
2024-02-28T03:42:16.088Z,17.20
2024-02-28T03:44:44.933Z,18.10
2024-02-28T03:47:13.204Z,16.10
2024-02-28T03:49:41.323Z,17.20
2024-02-28T03:52:09.599Z,13.40
2024-02-28T03:54:37.985Z,14.00
2024-02-28T03:57:06.271Z,13.40
2024-02-28T03:59:34.467Z,25.50
2024-02-28T04:02:02.698Z,17.50
2024-02-28T04:04:30.816Z,18.50
2024-02-28T04:06:59.058Z,20.10
2024-02-28T04:09:27.517Z,29.10
2024-02-28T04:11:55.694Z,24.80
2024-02-28T04:14:23.822Z,25.50
2024-02-28T04:16:52.033Z,15.20
2024-02-28T04:19:20.158Z,22.50
2024-02-28T04:21:48.423Z,21.70
2024-02-28T04:24:17.941Z,27.10
2024-02-28T04:26:46.344Z,24.90
2024-02-28T04:29:15.776Z,27.40
2024-02-28T04:31:44.058Z,26.30
2024-02-28T04:34:12.162Z,25.90
2024-02-28T04:36:40.611Z,20.90
2024-02-28T04:39:09.208Z,24.10
2024-02-28T04:41:37.644Z,22.30
2024-02-28T04:44:05.889Z,25.90
2024-02-28T04:46:35.914Z,26.60
2024-02-28T04:49:04.181Z,38.40
2024-02-28T04:51:32.430Z,32.10
2024-02-28T04:54:00.642Z,24.80
2024-02-28T04:56:29.052Z,26.60
2024-02-28T04:58:57.931Z,28.30
2024-02-28T05:01:26.170Z,40.10
2024-02-28T05:03:54.511Z,30.00
2024-02-28T05:06:22.888Z,27.90
2024-02-28T05:08:51.157Z,30.90
2024-02-28T05:11:19.476Z,27.30
2024-02-28T05:13:47.881Z,29.30
2024-02-28T05:16:17.483Z,20.50
2024-02-28T05:18:46.437Z,25.40
2024-02-28T05:21:15.366Z,33.30
2024-02-28T05:23:43.809Z,22.40
2024-02-28T05:26:11.956Z,29.60
2024-02-28T05:28:40.689Z,19.30
2024-02-28T05:31:26.303Z,29.50
2024-02-28T05:33:57.922Z,43.60
2024-02-28T05:36:28.549Z,22.50
2024-02-28T05:38:58.845Z,24.80
2024-02-28T05:41:27.091Z,18.70
2024-02-28T05:43:55.265Z,22.50
2024-02-28T05:46:23.746Z,11.40
2024-02-28T05:48:52.076Z,20.40
2024-02-28T05:51:20.938Z,26.90
2024-02-28T05:53:49.289Z,18.50
2024-02-28T05:56:21.333Z,21.70
2024-02-28T05:58:50.216Z,25.80
2024-02-28T06:01:20.046Z,23.60
2024-02-28T06:03:52.192Z,24.40
2024-02-28T06:06:20.501Z,16.20
2024-02-28T06:08:48.795Z,13.20
2024-02-28T06:11:17.946Z,19.90
2024-02-28T06:13:46.159Z,24.20
2024-02-28T06:16:19.343Z,28.70
2024-02-28T06:18:47.713Z,19.80
2024-02-28T06:21:16.192Z,15.20
2024-02-28T06:23:44.599Z,19.50
2024-02-28T06:26:18.089Z,21.90
2024-02-28T06:28:47.175Z,10.80
2024-02-28T06:31:19.074Z,14.20
2024-02-28T06:33:47.445Z,11.70
2024-02-28T06:36:15.885Z,8.80
2024-02-28T06:38:44.280Z,15.50
2024-02-28T06:41:12.479Z,16.70
2024-02-28T06:43:40.787Z,9.60
2024-02-28T06:46:09.130Z,10.60
2024-02-28T06:48:37.374Z,7.30
2024-02-28T06:51:05.751Z,15.20
2024-02-28T06:53:33.982Z,32.90
2024-02-28T06:56:04.078Z,20.40
2024-02-28T06:58:32.357Z,18.40
2024-02-28T07:01:02.630Z,14.00
2024-02-28T07:03:31.335Z,23.00
2024-02-28T07:06:00.095Z,12.70
2024-02-28T07:08:28.388Z,15.20
2024-02-28T07:10:56.552Z,17.20
2024-02-28T07:13:25.222Z,15.50
2024-02-28T07:15:55.782Z,18.10
2024-02-28T07:18:27.049Z,23.20
2024-02-28T07:20:55.882Z,18.60
2024-02-28T07:23:24.014Z,17.00
2024-02-28T07:25:52.294Z,16.80
2024-02-28T07:28:20.418Z,9.80
2024-02-28T07:30:49.743Z,20.00
2024-02-28T07:33:18.267Z,24.70
2024-02-28T07:35:51.244Z,23.70
2024-02-28T07:38:22.432Z,22.40
2024-02-28T07:40:51.219Z,21.60
2024-02-28T07:43:19.378Z,16.60
2024-02-28T07:45:47.575Z,17.50
2024-02-28T07:48:16.188Z,15.00
2024-02-28T07:50:46.042Z,14.70
2024-02-28T07:53:14.652Z,18.40
2024-02-28T07:55:43.015Z,15.30
2024-02-28T07:58:11.195Z,19.10
2024-02-28T08:00:39.562Z,11.60
2024-02-28T08:03:08.599Z,13.70
2024-02-28T08:05:40.501Z,14.80
2024-02-28T08:08:09.279Z,12.70
2024-02-28T08:10:39.313Z,23.20
2024-02-28T08:13:09.056Z,18.00
2024-02-28T08:15:37.270Z,12.60
2024-02-28T08:18:05.678Z,13.20
2024-02-28T08:20:34.099Z,17.10
2024-02-28T08:23:02.360Z,9.90
2024-02-28T08:25:30.559Z,9.80
2024-02-28T08:27:58.872Z,12.60
2024-02-28T08:30:27.086Z,11.40
2024-02-28T08:32:55.405Z,18.70
2024-02-28T08:35:25.182Z,26.20
2024-02-28T08:37:54.277Z,11.50
2024-02-28T08:40:22.956Z,17.60
2024-02-28T08:42:54.679Z,11.50
2024-02-28T08:45:24.175Z,11.80
2024-02-28T08:47:53.201Z,14.10
2024-02-28T08:50:21.510Z,14.20
2024-02-28T08:52:49.668Z,16.00
2024-02-28T08:55:20.055Z,31.70
2024-02-28T08:57:48.328Z,15.60
2024-02-28T09:00:16.933Z,15.40
2024-02-28T09:02:45.708Z,13.20
2024-02-28T09:05:14.028Z,7.70
2024-02-28T09:07:42.189Z,15.00
2024-02-28T09:10:10.869Z,12.90
2024-02-28T09:12:39.468Z,4.00
2024-02-28T09:15:08.237Z,9.00
2024-02-28T09:17:36.588Z,7.60
2024-02-28T09:20:07.976Z,6.60
2024-02-28T09:22:36.689Z,11.30
2024-02-28T09:25:05.680Z,3.70
2024-02-28T09:27:34.459Z,5.30
2024-02-28T09:30:03.991Z,8.80
2024-02-28T09:32:32.320Z,7.20
2024-02-28T09:35:00.666Z,12.10
2024-02-28T09:37:30.421Z,11.90
2024-02-28T09:39:59.797Z,10.50
2024-02-28T09:42:29.427Z,7.50
2024-02-28T09:45:02.367Z,8.50
2024-02-28T09:47:31.473Z,6.60
2024-02-28T09:50:00.044Z,14.30
2024-02-28T09:52:31.366Z,12.70
2024-02-28T09:54:59.655Z,7.40
2024-02-28T09:57:30.086Z,12.70
2024-02-28T10:00:01.734Z,7.80
2024-02-28T10:02:35.243Z,5.60
2024-02-28T10:05:06.092Z,11.90
2024-02-28T10:07:34.255Z,7.70
2024-02-28T10:10:02.495Z,7.20
2024-02-28T10:12:30.735Z,9.50
2024-02-28T10:15:01.757Z,7.00
2024-02-28T10:17:30.379Z,7.50
2024-02-28T10:20:00.748Z,2.50
2024-02-28T10:22:29.121Z,6.90
2024-02-28T10:25:02.188Z,5.30
2024-02-28T10:27:33.815Z,4.10
2024-02-28T10:30:06.075Z,4.70
2024-02-28T10:32:37.532Z,4.50
2024-02-28T10:35:11.114Z,4.30
2024-02-28T10:37:41.562Z,10.00
2024-02-28T10:40:11.680Z,3.90
2024-02-28T10:42:43.757Z,6.20
2024-02-28T10:45:21.077Z,3.60
2024-02-28T10:47:58.410Z,11.90
2024-02-28T10:50:26.631Z,8.90
2024-02-28T10:53:02.028Z,5.40
2024-02-28T10:55:41.652Z,7.30
2024-02-28T10:58:14.147Z,10.30
2024-02-28T11:00:48.442Z,8.20
2024-02-28T11:03:18.962Z,4.90
2024-02-28T11:05:47.806Z,12.90
2024-02-28T11:08:24.104Z,7.90
2024-02-28T11:10:57.275Z,8.60
2024-02-28T11:13:27.510Z,7.90
2024-02-28T11:15:58.970Z,9.60
2024-02-28T11:18:27.212Z,9.30
2024-02-28T11:20:56.374Z,14.40
2024-02-28T11:23:25.226Z,6.90
2024-02-28T11:25:54.447Z,12.10
2024-02-28T11:28:25.481Z,6.40
2024-02-28T11:30:53.774Z,9.20
2024-02-28T11:33:22.198Z,11.40
2024-02-28T11:35:58.633Z,4.20
2024-02-28T11:38:27.858Z,10.40
2024-02-28T11:40:56.883Z,9.10
2024-02-28T11:43:26.988Z,8.90
2024-02-28T11:45:56.793Z,3.10
2024-02-28T11:48:27.011Z,6.50
2024-02-28T11:50:55.983Z,7.90
2024-02-28T11:53:28.041Z,11.00
2024-02-28T11:55:57.020Z,8.60
2024-02-28T11:58:25.188Z,6.00
2024-02-28T12:00:53.793Z,8.20
2024-02-28T12:03:26.300Z,7.30
2024-02-28T12:05:56.277Z,8.40
2024-02-28T12:08:26.692Z,5.20
2024-02-28T12:10:56.879Z,11.90
2024-02-28T12:13:25.063Z,5.70
2024-02-28T12:15:53.206Z,5.30
2024-02-28T12:18:21.445Z,10.80
2024-02-28T12:20:51.357Z,12.20
2024-02-28T12:23:19.843Z,11.30
2024-02-28T12:25:48.250Z,8.50
2024-02-28T12:28:17.087Z,5.70
2024-02-28T12:30:45.679Z,7.20
2024-02-28T12:33:14.056Z,7.80
2024-02-28T12:35:43.748Z,7.00
2024-02-28T12:38:12.329Z,8.20
2024-02-28T12:40:40.747Z,12.20
2024-02-28T12:43:10.120Z,7.00
2024-02-28T12:45:38.841Z,8.40
2024-02-28T12:48:08.376Z,11.90
2024-02-28T12:50:37.100Z,6.00
2024-02-28T12:53:05.565Z,9.20
2024-02-28T12:55:33.776Z,10.60
2024-02-28T12:58:06.034Z,12.20
2024-02-28T13:00:34.713Z,15.10
2024-02-28T13:03:04.610Z,9.80
2024-02-28T13:05:33.284Z,7.40
2024-02-28T13:08:02.463Z,9.30
2024-02-28T13:10:31.721Z,11.80
2024-02-28T13:13:00.002Z,9.40
2024-02-28T13:15:28.412Z,8.50
2024-02-28T13:17:56.869Z,14.60
2024-02-28T13:20:25.784Z,13.70
2024-02-28T13:22:54.867Z,8.20
2024-02-28T13:25:23.274Z,11.30
2024-02-28T13:27:51.735Z,12.20
2024-02-28T13:30:20.657Z,12.90
2024-02-28T13:32:50.425Z,8.90
2024-02-28T13:35:19.005Z,10.90
2024-02-28T13:37:47.292Z,11.50
2024-02-28T13:40:15.678Z,10.40
2024-02-28T13:42:44.222Z,8.60
2024-02-28T13:45:13.163Z,8.40
2024-02-28T13:47:41.421Z,16.50
2024-02-28T13:50:11.107Z,13.40
2024-02-28T13:52:39.212Z,9.10
2024-02-28T13:55:09.562Z,13.20
2024-02-28T13:57:37.787Z,14.50
2024-02-28T14:00:08.144Z,6.60
2024-02-28T14:02:39.345Z,16.40
2024-02-28T14:05:09.027Z,7.80
2024-02-28T14:07:38.439Z,14.40
2024-02-28T14:10:06.978Z,11.50
2024-02-28T14:12:35.160Z,12.90
2024-02-28T14:15:03.969Z,12.20
2024-02-28T14:17:33.037Z,19.50
2024-02-28T14:20:01.676Z,20.90
2024-02-28T14:22:29.854Z,9.40
2024-02-28T14:24:58.065Z,11.10
2024-02-28T14:27:31.423Z,12.00
2024-02-28T14:29:59.780Z,13.80
2024-02-28T14:32:27.965Z,13.50
2024-02-28T14:34:56.172Z,13.60
2024-02-28T14:37:24.414Z,8.10
2024-02-28T14:39:52.943Z,12.10
2024-02-28T14:42:21.363Z,13.50
2024-02-28T14:44:49.498Z,11.70
2024-02-28T14:47:17.667Z,18.00
2024-02-28T14:49:45.805Z,13.00
2024-02-28T14:52:14.983Z,16.50
2024-02-28T14:54:45.630Z,14.50
2024-02-28T14:57:14.908Z,14.40
2024-02-28T14:59:43.585Z,11.30
2024-02-28T15:02:13.034Z,18.10
2024-02-28T15:04:41.241Z,12.90
2024-02-28T15:07:09.636Z,12.90
2024-02-28T15:09:40.915Z,17.80
2024-02-28T15:12:10.205Z,14.90
2024-02-28T15:14:38.420Z,16.70
2024-02-28T15:17:06.634Z,19.50
2024-02-28T15:19:35.018Z,11.80
2024-02-28T15:22:03.225Z,14.80
2024-02-28T15:24:31.633Z,14.10
2024-02-28T15:27:00.483Z,21.20
2024-02-28T15:29:29.977Z,18.80
2024-02-28T15:31:58.087Z,15.40
2024-02-28T15:34:26.240Z,13.10
2024-02-28T15:36:54.569Z,16.90
2024-02-28T15:39:22.994Z,21.80
2024-02-28T15:41:53.299Z,18.80
2024-02-28T15:44:21.503Z,11.80
2024-02-28T15:46:49.713Z,14.80
2024-02-28T15:49:24.775Z,12.60
2024-02-28T15:51:57.533Z,21.80
2024-02-28T15:54:25.908Z,18.80
2024-02-28T15:56:54.190Z,11.60
2024-02-28T15:59:22.522Z,9.50
2024-02-28T16:01:51.124Z,13.70
2024-02-28T16:04:19.331Z,13.20
2024-02-28T16:06:47.618Z,14.10
2024-02-28T16:09:16.360Z,16.50
2024-02-28T16:11:45.086Z,11.60
2024-02-28T16:14:14.846Z,17.30
2024-02-28T16:16:43.088Z,17.20
2024-02-28T16:19:18.147Z,17.70
2024-02-28T16:21:53.324Z,18.00
2024-02-28T16:24:21.721Z,12.60
2024-02-28T16:26:50.104Z,25.00
2024-02-28T16:29:18.351Z,35.40
2024-02-28T16:31:50.567Z,31.90
2024-02-28T16:34:20.932Z,54.90
2024-02-28T16:36:49.757Z,39.30
2024-02-28T16:39:20.534Z,27.50
2024-02-28T16:41:48.800Z,34.20
2024-02-28T16:44:17.054Z,36.90
2024-02-28T16:46:45.313Z,38.00
2024-02-28T16:49:13.518Z,35.90
2024-02-28T16:51:43.132Z,21.80
2024-02-28T16:54:13.434Z,30.60
2024-02-28T16:56:41.721Z,21.60
2024-02-28T16:59:11.155Z,22.60
2024-02-28T17:01:39.463Z,53.50
2024-02-28T17:04:07.932Z,54.80
2024-02-28T17:06:36.479Z,53.80
2024-02-28T17:09:04.827Z,57.40
2024-02-28T17:11:32.985Z,49.00
2024-02-28T17:14:01.676Z,52.60
2024-02-28T17:16:29.990Z,62.30
2024-02-28T17:18:58.587Z,51.80
2024-02-28T17:21:26.820Z,48.90
2024-02-28T17:23:55.055Z,40.70
2024-02-28T17:26:23.423Z,28.10
2024-02-28T17:28:51.962Z,33.60
2024-02-28T17:31:20.242Z,67.20
2024-02-28T17:33:49.066Z,61.90
2024-02-28T17:36:18.843Z,50.80
2024-02-28T17:38:47.314Z,42.80
2024-02-28T17:41:17.069Z,41.30
2024-02-28T17:43:46.166Z,43.40
2024-02-28T17:46:17.324Z,64.90
2024-02-28T17:48:45.790Z,74.40
2024-02-28T17:51:14.139Z,61.10
2024-02-28T17:53:43.725Z,59.70
2024-02-28T17:56:12.840Z,82.80
2024-02-28T17:58:41.315Z,56.80
2024-02-28T18:01:09.554Z,70.10
2024-02-28T18:03:37.985Z,127.90
2024-02-28T18:06:06.200Z,116.90
2024-02-28T18:08:35.536Z,88.20
2024-02-28T18:11:05.610Z,66.60
2024-02-28T18:13:34.433Z,80.10
2024-02-28T18:16:02.712Z,88.80
2024-02-28T18:18:34.096Z,77.90
2024-02-28T18:21:02.472Z,155.40
2024-02-28T18:23:34.720Z,110.20
2024-02-28T18:26:04.443Z,78.30
2024-02-28T18:28:38.004Z,69.50
2024-02-28T18:31:09.274Z,59.40
2024-02-28T18:33:37.735Z,55.90
2024-02-28T18:36:06.328Z,50.40
2024-02-28T18:38:34.562Z,67.70
2024-02-28T18:41:03.195Z,98.70
2024-02-28T18:43:32.285Z,79.40
2024-02-28T18:46:03.005Z,88.00
2024-02-28T18:48:31.296Z,99.50
2024-02-28T18:50:59.460Z,89.90
2024-02-28T18:53:27.945Z,94.20
2024-02-28T18:55:56.070Z,74.20
2024-02-28T18:58:24.242Z,79.20
2024-02-28T19:00:52.952Z,67.40
2024-02-28T19:03:21.464Z,66.40
2024-02-28T19:05:49.936Z,44.80
2024-02-28T19:08:18.427Z,52.40
2024-02-28T19:10:46.802Z,51.50
2024-02-28T19:13:14.995Z,57.30
2024-02-28T19:15:43.317Z,56.80
2024-02-28T19:18:11.511Z,55.70
2024-02-28T19:20:39.765Z,48.50
2024-02-28T19:23:08.025Z,57.50
2024-02-28T19:25:36.206Z,40.70
2024-02-28T19:28:04.945Z,68.10
2024-02-28T19:30:33.250Z,120.00
2024-02-28T19:33:01.720Z,94.70
2024-02-28T19:35:30.167Z,74.60
2024-02-28T19:37:58.632Z,61.10
2024-02-28T19:40:26.956Z,59.40
2024-02-28T19:42:56.949Z,48.80
2024-02-28T19:45:25.268Z,59.60
2024-02-28T19:47:53.583Z,45.70
2024-02-28T19:50:25.066Z,52.80
2024-02-28T19:52:53.544Z,65.20
2024-02-28T19:55:23.237Z,62.20
2024-02-28T19:57:51.449Z,50.90
2024-02-28T20:00:20.728Z,49.90
2024-02-28T20:02:49.312Z,43.00
2024-02-28T20:05:20.316Z,46.10
2024-02-28T20:10:19.430Z,38.80
2024-02-28T20:12:48.176Z,38.50
2024-02-28T20:15:16.327Z,59.90
2024-02-28T20:17:44.542Z,36.00
2024-02-28T20:20:12.841Z,30.20
2024-02-28T20:22:43.185Z,42.80
2024-02-28T20:25:11.667Z,36.50
2024-02-28T20:27:39.890Z,33.20
2024-02-28T20:30:08.909Z,22.90
2024-02-28T20:32:37.341Z,32.30
2024-02-28T20:35:07.906Z,28.40
2024-02-28T20:37:36.427Z,28.30
2024-02-28T20:40:07.466Z,26.70
2024-02-28T20:42:36.892Z,28.30
2024-02-28T20:45:06.905Z,31.30
2024-02-28T20:47:35.160Z,36.70
2024-02-28T20:50:06.217Z,36.20
2024-02-28T20:52:35.127Z,38.10
2024-02-28T20:55:05.099Z,31.60
2024-02-28T20:57:33.621Z,43.10
2024-02-28T21:00:02.371Z,37.40
2024-02-28T21:02:31.268Z,52.10
2024-02-28T21:05:01.393Z,51.90
2024-02-28T21:07:41.122Z,53.90
2024-02-28T21:10:16.780Z,52.30
2024-02-28T21:12:44.991Z,57.20
2024-02-28T21:15:13.217Z,43.60
2024-02-28T21:17:41.915Z,53.00
2024-02-28T21:20:10.499Z,53.70
2024-02-28T21:22:40.854Z,50.10
2024-02-28T21:25:09.343Z,47.60
2024-02-28T21:27:37.834Z,55.10
2024-02-28T21:30:07.632Z,58.70
2024-02-28T21:32:40.380Z,57.70
2024-02-28T21:35:11.779Z,53.00
2024-02-28T21:37:41.118Z,51.60
2024-02-28T21:40:10.249Z,50.80
2024-02-28T21:42:39.284Z,49.10
2024-02-28T21:45:08.162Z,47.80
2024-02-28T21:47:36.622Z,51.30
2024-02-28T21:50:07.146Z,51.10
2024-02-28T21:52:35.386Z,40.10
2024-02-28T21:55:08.358Z,40.80
2024-02-28T22:00:05.507Z,43.20
2024-02-28T22:02:37.507Z,52.00
2024-02-28T22:05:06.180Z,36.50
2024-02-28T22:07:34.703Z,33.90
2024-02-28T22:10:03.326Z,35.40
2024-02-28T22:12:31.609Z,33.80
2024-02-28T22:14:59.772Z,28.50
2024-02-28T22:17:28.033Z,32.80
2024-02-28T22:19:56.246Z,43.20
2024-02-28T22:22:24.371Z,37.70
2024-02-28T22:24:52.588Z,21.90
2024-02-28T22:27:20.889Z,24.70
2024-02-28T22:29:49.484Z,25.40
2024-02-28T22:32:17.755Z,30.60
2024-02-28T22:34:45.931Z,29.90
2024-02-28T22:37:14.574Z,16.10
2024-02-28T22:39:42.821Z,27.40
2024-02-28T22:42:11.083Z,24.00
2024-02-28T22:44:39.299Z,22.00
2024-02-28T22:47:07.522Z,22.50
2024-02-28T22:49:35.753Z,14.00
2024-02-28T22:52:04.378Z,18.80
2024-02-28T22:54:32.823Z,25.70
2024-02-28T22:57:01.207Z,25.50
2024-02-28T22:59:30.194Z,21.20
2024-02-28T23:01:58.569Z,29.60
2024-02-28T23:04:26.941Z,18.30
2024-02-28T23:06:56.755Z,30.20
2024-02-28T23:09:25.169Z,27.30
2024-02-28T23:11:53.328Z,24.50
2024-02-28T23:14:21.548Z,17.20
2024-02-28T23:16:49.698Z,18.20
2024-02-28T23:19:17.836Z,19.40
2024-02-28T23:21:47.409Z,20.10
2024-02-28T23:24:15.994Z,18.80
2024-02-28T23:26:44.205Z,22.00
2024-02-28T23:29:12.339Z,26.90
2024-02-28T23:31:40.583Z,28.90
2024-02-28T23:34:09.415Z,26.10
2024-02-28T23:36:37.801Z,23.00
2024-02-28T23:39:05.950Z,17.20
2024-02-28T23:41:34.783Z,21.10
2024-02-28T23:44:03.090Z,18.60
2024-02-28T23:46:31.318Z,29.20
2024-02-28T23:48:59.449Z,25.50
2024-02-28T23:51:27.670Z,17.80
2024-02-28T23:53:55.842Z,18.90
2024-02-28T23:56:23.997Z,18.00
2024-02-28T23:58:52.122Z,16.80
